sensor_id;sensor_type;location;lat;lon;timestamp;temperature;humidity
28823;DHT22;15961;54.678;9.110;2022-09-09T00:01:28;13.90;99.90
28823;DHT22;15961;54.678;9.110;2022-09-09T00:04:16;13.90;99.90
28823;DHT22;15961;54.678;9.110;2022-09-09T00:09:28;13.90;99.90
28823;DHT22;15961;54.678;9.110;2022-09-09T00:12:01;13.90;99.90
28823;DHT22;15961;54.678;9.110;2022-09-09T00:14:59;13.90;99.90
28823;DHT22;15961;54.678;9.110;2022-09-09T00:17:37;13.90;99.90
28823;DHT22;15961;54.678;9.110;2022-09-09T00:22:50;13.90;99.90
28823;DHT22;15961;54.678;9.110;2022-09-09T00:25:42;14.00;99.90
28823;DHT22;15961;54.678;9.110;2022-09-09T00:28:18;13.90;99.90
28823;DHT22;15961;54.678;9.110;2022-09-09T00:30:44;13.90;99.90
28823;DHT22;15961;54.678;9.110;2022-09-09T00:33:14;13.90;99.90
28823;DHT22;15961;54.678;9.110;2022-09-09T00:35:47;13.90;99.90
28823;DHT22;15961;54.678;9.110;2022-09-09T00:38:34;13.90;99.90
28823;DHT22;15961;54.678;9.110;2022-09-09T00:41:21;13.90;99.90
28823;DHT22;15961;54.678;9.110;2022-09-09T00:43:57;14.00;99.90
28823;DHT22;15961;54.678;9.110;2022-09-09T00:46:41;14.00;99.90
28823;DHT22;15961;54.678;9.110;2022-09-09T00:49:20;14.10;99.90
28823;DHT22;15961;54.678;9.110;2022-09-09T00:57:52;14.10;99.90
28823;DHT22;15961;54.678;9.110;2022-09-09T01:00:31;14.10;99.90
28823;DHT22;15961;54.678;9.110;2022-09-09T01:05:59;14.10;99.90
28823;DHT22;15961;54.678;9.110;2022-09-09T01:25:20;14.20;99.90
28823;DHT22;15961;54.678;9.110;2022-09-09T01:27:48;14.10;99.90
28823;DHT22;15961;54.678;9.110;2022-09-09T01:30:17;14.20;99.90
28823;DHT22;15961;54.678;9.110;2022-09-09T01:32:46;14.10;99.90
28823;DHT22;15961;54.678;9.110;2022-09-09T01:35:27;14.10;99.90
28823;DHT22;15961;54.678;9.110;2022-09-09T01:37:55;14.10;99.90
28823;DHT22;15961;54.678;9.110;2022-09-09T01:40:21;14.10;99.90
28823;DHT22;15961;54.678;9.110;2022-09-09T01:42:47;14.10;99.90
28823;DHT22;15961;54.678;9.110;2022-09-09T01:45:13;14.10;99.90
28823;DHT22;15961;54.678;9.110;2022-09-09T01:47:38;14.20;99.90
28823;DHT22;15961;54.678;9.110;2022-09-09T01:50:04;14.20;99.90
28823;DHT22;15961;54.678;9.110;2022-09-09T01:52:31;14.20;99.90
28823;DHT22;15961;54.678;9.110;2022-09-09T01:54:59;14.20;99.90
28823;DHT22;15961;54.678;9.110;2022-09-09T02:00:04;14.20;99.90
28823;DHT22;15961;54.678;9.110;2022-09-09T02:02:48;14.20;99.90
28823;DHT22;15961;54.678;9.110;2022-09-09T02:05:38;14.20;99.90
28823;DHT22;15961;54.678;9.110;2022-09-09T02:08:17;14.20;99.90
28823;DHT22;15961;54.678;9.110;2022-09-09T02:10:49;14.20;99.90
28823;DHT22;15961;54.678;9.110;2022-09-09T02:13:19;14.20;99.90
28823;DHT22;15961;54.678;9.110;2022-09-09T02:15:55;14.20;99.90
28823;DHT22;15961;54.678;9.110;2022-09-09T02:18:28;14.20;99.90
28823;DHT22;15961;54.678;9.110;2022-09-09T02:20:56;14.30;99.90
28823;DHT22;15961;54.678;9.110;2022-09-09T02:23:24;14.20;99.90
28823;DHT22;15961;54.678;9.110;2022-09-09T02:25:51;14.30;99.90
28823;DHT22;15961;54.678;9.110;2022-09-09T02:28:19;14.30;99.90
28823;DHT22;15961;54.678;9.110;2022-09-09T02:30:48;14.30;99.90
28823;DHT22;15961;54.678;9.110;2022-09-09T02:33:19;14.30;99.90
28823;DHT22;15961;54.678;9.110;2022-09-09T02:35:45;14.30;99.90
28823;DHT22;15961;54.678;9.110;2022-09-09T02:38:13;14.30;99.90
28823;DHT22;15961;54.678;9.110;2022-09-09T02:40:40;14.30;99.90
28823;DHT22;15961;54.678;9.110;2022-09-09T02:43:06;14.30;99.90
28823;DHT22;15961;54.678;9.110;2022-09-09T02:45:40;14.30;99.90
28823;DHT22;15961;54.678;9.110;2022-09-09T02:48:20;14.30;99.90
28823;DHT22;15961;54.678;9.110;2022-09-09T02:51:07;14.30;99.90
28823;DHT22;15961;54.678;9.110;2022-09-09T02:56:15;14.20;99.90
28823;DHT22;15961;54.678;9.110;2022-09-09T02:58:41;14.20;99.90
28823;DHT22;15961;54.678;9.110;2022-09-09T03:01:07;14.10;99.90
28823;DHT22;15961;54.678;9.110;2022-09-09T03:03:34;14.10;99.90
28823;DHT22;15961;54.678;9.110;2022-09-09T03:06:00;14.10;99.90
28823;DHT22;15961;54.678;9.110;2022-09-09T03:08:25;14.10;99.90
28823;DHT22;15961;54.678;9.110;2022-09-09T03:10:54;14.10;99.90
28823;DHT22;15961;54.678;9.110;2022-09-09T03:13:19;14.10;99.90
28823;DHT22;15961;54.678;9.110;2022-09-09T03:15:45;14.10;99.90
28823;DHT22;15961;54.678;9.110;2022-09-09T03:18:10;14.00;99.90
28823;DHT22;15961;54.678;9.110;2022-09-09T03:20:36;14.00;99.90
28823;DHT22;15961;54.678;9.110;2022-09-09T03:23:01;14.10;99.90
28823;DHT22;15961;54.678;9.110;2022-09-09T03:25:28;14.10;99.90
28823;DHT22;15961;54.678;9.110;2022-09-09T03:27:55;14.10;99.90
28823;DHT22;15961;54.678;9.110;2022-09-09T03:30:25;14.10;99.90
28823;DHT22;15961;54.678;9.110;2022-09-09T03:32:50;14.10;99.90
28823;DHT22;15961;54.678;9.110;2022-09-09T03:35:17;14.10;99.90
28823;DHT22;15961;54.678;9.110;2022-09-09T03:37:42;14.10;99.90
28823;DHT22;15961;54.678;9.110;2022-09-09T03:40:09;14.20;99.90
28823;DHT22;15961;54.678;9.110;2022-09-09T03:42:36;14.30;99.90
28823;DHT22;15961;54.678;9.110;2022-09-09T03:45:06;14.30;99.90
28823;DHT22;15961;54.678;9.110;2022-09-09T03:47:32;14.30;99.90
28823;DHT22;15961;54.678;9.110;2022-09-09T03:49:58;14.40;99.90
28823;DHT22;15961;54.678;9.110;2022-09-09T03:52:24;14.50;99.90
28823;DHT22;15961;54.678;9.110;2022-09-09T03:54:52;14.50;99.90
28823;DHT22;15961;54.678;9.110;2022-09-09T03:57:18;14.60;99.90
28823;DHT22;15961;54.678;9.110;2022-09-09T03:59:44;14.60;99.90
28823;DHT22;15961;54.678;9.110;2022-09-09T04:02:09;14.60;99.90
28823;DHT22;15961;54.678;9.110;2022-09-09T04:04:35;14.70;99.90
28823;DHT22;15961;54.678;9.110;2022-09-09T04:07:01;14.70;99.90
28823;DHT22;15961;54.678;9.110;2022-09-09T04:09:27;14.80;99.90
28823;DHT22;15961;54.678;9.110;2022-09-09T04:11:53;14.80;99.90
28823;DHT22;15961;54.678;9.110;2022-09-09T04:14:19;14.80;99.90
28823;DHT22;15961;54.678;9.110;2022-09-09T04:16:45;14.80;99.90
28823;DHT22;15961;54.678;9.110;2022-09-09T04:19:12;14.80;99.90
28823;DHT22;15961;54.678;9.110;2022-09-09T04:21:40;14.80;99.90
28823;DHT22;15961;54.678;9.110;2022-09-09T04:24:07;14.70;99.90
28823;DHT22;15961;54.678;9.110;2022-09-09T04:26:33;14.70;99.90
28823;DHT22;15961;54.678;9.110;2022-09-09T04:28:58;14.70;99.90
28823;DHT22;15961;54.678;9.110;2022-09-09T04:31:24;14.60;99.90
28823;DHT22;15961;54.678;9.110;2022-09-09T04:33:52;14.60;99.90
28823;DHT22;15961;54.678;9.110;2022-09-09T04:36:19;14.60;99.90
28823;DHT22;15961;54.678;9.110;2022-09-09T04:38:45;14.60;99.90
28823;DHT22;15961;54.678;9.110;2022-09-09T04:41:11;14.60;99.90
28823;DHT22;15961;54.678;9.110;2022-09-09T04:43:38;14.60;99.90
28823;DHT22;15961;54.678;9.110;2022-09-09T04:46:04;14.60;99.90
28823;DHT22;15961;54.678;9.110;2022-09-09T04:48:30;14.50;99.90
28823;DHT22;15961;54.678;9.110;2022-09-09T04:51:02;14.50;99.90
28823;DHT22;15961;54.678;9.110;2022-09-09T04:53:30;14.50;99.90
28823;DHT22;15961;54.678;9.110;2022-09-09T04:56:10;14.50;99.90
28823;DHT22;15961;54.678;9.110;2022-09-09T04:58:37;14.40;99.90
28823;DHT22;15961;54.678;9.110;2022-09-09T05:01:08;14.40;99.90
28823;DHT22;15961;54.678;9.110;2022-09-09T05:03:34;14.40;99.90
28823;DHT22;15961;54.678;9.110;2022-09-09T05:06:11;14.40;99.90
28823;DHT22;15961;54.678;9.110;2022-09-09T05:08:38;14.40;99.90
28823;DHT22;15961;54.678;9.110;2022-09-09T05:11:19;14.40;99.90
28823;DHT22;15961;54.678;9.110;2022-09-09T05:13:46;14.40;99.90
28823;DHT22;15961;54.678;9.110;2022-09-09T05:16:12;14.40;99.90
28823;DHT22;15961;54.678;9.110;2022-09-09T05:18:39;14.40;99.90
28823;DHT22;15961;54.678;9.110;2022-09-09T05:21:05;14.50;99.90
28823;DHT22;15961;54.678;9.110;2022-09-09T05:23:31;14.40;99.90
28823;DHT22;15961;54.678;9.110;2022-09-09T05:26:00;14.40;99.90
28823;DHT22;15961;54.678;9.110;2022-09-09T05:28:26;14.40;99.90
28823;DHT22;15961;54.678;9.110;2022-09-09T05:30:59;14.40;99.90
28823;DHT22;15961;54.678;9.110;2022-09-09T05:33:26;14.40;99.90
28823;DHT22;15961;54.678;9.110;2022-09-09T05:35:59;14.40;99.90
28823;DHT22;15961;54.678;9.110;2022-09-09T05:38:25;14.40;99.90
28823;DHT22;15961;54.678;9.110;2022-09-09T05:40:51;14.40;99.90
28823;DHT22;15961;54.678;9.110;2022-09-09T05:43:18;14.40;99.90
28823;DHT22;15961;54.678;9.110;2022-09-09T05:45:46;14.50;99.90
28823;DHT22;15961;54.678;9.110;2022-09-09T05:48:16;14.50;99.90
28823;DHT22;15961;54.678;9.110;2022-09-09T05:50:42;14.50;99.90
28823;DHT22;15961;54.678;9.110;2022-09-09T05:53:08;14.50;99.90
28823;DHT22;15961;54.678;9.110;2022-09-09T05:55:35;14.50;99.90
28823;DHT22;15961;54.678;9.110;2022-09-09T05:58:01;14.40;99.90
28823;DHT22;15961;54.678;9.110;2022-09-09T06:00:26;14.40;99.90
28823;DHT22;15961;54.678;9.110;2022-09-09T06:02:52;14.40;99.90
28823;DHT22;15961;54.678;9.110;2022-09-09T06:05:19;14.50;99.90
28823;DHT22;15961;54.678;9.110;2022-09-09T06:07:44;14.50;99.90
28823;DHT22;15961;54.678;9.110;2022-09-09T06:10:11;14.50;99.90
28823;DHT22;15961;54.678;9.110;2022-09-09T06:12:39;14.50;99.90
28823;DHT22;15961;54.678;9.110;2022-09-09T06:15:05;14.40;99.90
28823;DHT22;15961;54.678;9.110;2022-09-09T06:17:31;14.40;99.90
28823;DHT22;15961;54.678;9.110;2022-09-09T06:19:57;14.40;99.90
28823;DHT22;15961;54.678;9.110;2022-09-09T06:22:23;14.50;99.90
28823;DHT22;15961;54.678;9.110;2022-09-09T06:24:49;14.50;99.90
28823;DHT22;15961;54.678;9.110;2022-09-09T06:27:14;14.50;99.90
28823;DHT22;15961;54.678;9.110;2022-09-09T06:29:40;14.60;99.90
28823;DHT22;15961;54.678;9.110;2022-09-09T06:32:05;14.60;99.90
28823;DHT22;15961;54.678;9.110;2022-09-09T06:34:33;14.60;99.90
28823;DHT22;15961;54.678;9.110;2022-09-09T06:37:00;14.70;99.90
28823;DHT22;15961;54.678;9.110;2022-09-09T06:39:25;14.70;99.90
28823;DHT22;15961;54.678;9.110;2022-09-09T06:41:51;14.70;99.90
28823;DHT22;15961;54.678;9.110;2022-09-09T06:44:19;14.60;99.90
28823;DHT22;15961;54.678;9.110;2022-09-09T06:46:44;14.60;99.90
28823;DHT22;15961;54.678;9.110;2022-09-09T06:49:13;14.70;99.90
28823;DHT22;15961;54.678;9.110;2022-09-09T06:51:39;14.70;99.90
28823;DHT22;15961;54.678;9.110;2022-09-09T06:54:08;14.80;99.90
28823;DHT22;15961;54.678;9.110;2022-09-09T06:56:36;14.80;99.90
28823;DHT22;15961;54.678;9.110;2022-09-09T06:59:04;14.80;99.90
28823;DHT22;15961;54.678;9.110;2022-09-09T07:01:38;14.90;99.90
28823;DHT22;15961;54.678;9.110;2022-09-09T07:04:06;14.80;99.90
28823;DHT22;15961;54.678;9.110;2022-09-09T07:06:38;14.80;99.90
28823;DHT22;15961;54.678;9.110;2022-09-09T07:09:06;14.80;99.90
28823;DHT22;15961;54.678;9.110;2022-09-09T07:11:33;15.00;99.90
28823;DHT22;15961;54.678;9.110;2022-09-09T07:14:00;14.90;99.90
28823;DHT22;15961;54.678;9.110;2022-09-09T07:16:27;14.90;99.90
28823;DHT22;15961;54.678;9.110;2022-09-09T07:18:53;14.80;99.90
28823;DHT22;15961;54.678;9.110;2022-09-09T07:21:24;14.60;99.90
28823;DHT22;15961;54.678;9.110;2022-09-09T07:23:50;14.70;99.90
28823;DHT22;15961;54.678;9.110;2022-09-09T07:26:18;14.60;99.90
28823;DHT22;15961;54.678;9.110;2022-09-09T07:28:44;14.70;99.90
28823;DHT22;15961;54.678;9.110;2022-09-09T07:31:15;14.80;99.90
28823;DHT22;15961;54.678;9.110;2022-09-09T07:33:42;14.80;99.90
28823;DHT22;15961;54.678;9.110;2022-09-09T07:36:23;15.00;99.90
28823;DHT22;15961;54.678;9.110;2022-09-09T07:38:57;15.00;99.90
28823;DHT22;15961;54.678;9.110;2022-09-09T07:41:24;15.00;99.90
28823;DHT22;15961;54.678;9.110;2022-09-09T07:43:51;15.10;99.90
28823;DHT22;15961;54.678;9.110;2022-09-09T07:46:18;15.30;99.90
28823;DHT22;15961;54.678;9.110;2022-09-09T07:48:48;15.20;99.90
28823;DHT22;15961;54.678;9.110;2022-09-09T07:51:18;15.20;99.90
28823;DHT22;15961;54.678;9.110;2022-09-09T07:53:45;15.20;99.90
28823;DHT22;15961;54.678;9.110;2022-09-09T07:56:13;15.30;99.90
28823;DHT22;15961;54.678;9.110;2022-09-09T07:58:40;15.40;99.90
28823;DHT22;15961;54.678;9.110;2022-09-09T08:01:09;15.50;99.90
28823;DHT22;15961;54.678;9.110;2022-09-09T08:03:35;15.50;99.90
28823;DHT22;15961;54.678;9.110;2022-09-09T08:06:02;15.50;99.90
28823;DHT22;15961;54.678;9.110;2022-09-09T08:08:28;15.60;99.90
28823;DHT22;15961;54.678;9.110;2022-09-09T08:11:04;15.50;99.90
28823;DHT22;15961;54.678;9.110;2022-09-09T08:13:30;15.60;99.90
28823;DHT22;15961;54.678;9.110;2022-09-09T08:16:10;15.60;99.90
28823;DHT22;15961;54.678;9.110;2022-09-09T08:18:36;15.50;99.90
28823;DHT22;15961;54.678;9.110;2022-09-09T08:21:29;15.60;99.90
28823;DHT22;15961;54.678;9.110;2022-09-09T08:23:56;15.60;99.90
28823;DHT22;15961;54.678;9.110;2022-09-09T08:26:28;15.70;99.90
28823;DHT22;15961;54.678;9.110;2022-09-09T08:28:56;15.80;99.90
28823;DHT22;15961;54.678;9.110;2022-09-09T08:31:26;15.90;99.90
28823;DHT22;15961;54.678;9.110;2022-09-09T08:33:53;16.00;99.90
28823;DHT22;15961;54.678;9.110;2022-09-09T08:36:22;16.10;99.90
28823;DHT22;15961;54.678;9.110;2022-09-09T08:38:49;16.20;99.90
28823;DHT22;15961;54.678;9.110;2022-09-09T08:47:31;16.00;99.90
28823;DHT22;15961;54.678;9.110;2022-09-09T08:52:59;16.10;99.90
28823;DHT22;15961;54.678;9.110;2022-09-09T08:55:35;16.10;99.90
28823;DHT22;15961;54.678;9.110;2022-09-09T08:58:23;16.20;99.90
28823;DHT22;15961;54.678;9.110;2022-09-09T09:01:14;16.30;99.90
28823;DHT22;15961;54.678;9.110;2022-09-09T09:11:59;17.20;99.90
28823;DHT22;15961;54.678;9.110;2022-09-09T09:14:33;17.70;99.90
28823;DHT22;15961;54.678;9.110;2022-09-09T09:17:06;18.00;99.90
28823;DHT22;15961;54.678;9.110;2022-09-09T09:19:38;18.10;99.90
28823;DHT22;15961;54.678;9.110;2022-09-09T09:22:18;18.10;99.90
28823;DHT22;15961;54.678;9.110;2022-09-09T09:28:10;18.30;99.90
28823;DHT22;15961;54.678;9.110;2022-09-09T09:30:44;18.50;99.90
28823;DHT22;15961;54.678;9.110;2022-09-09T09:33:20;18.60;99.90
28823;DHT22;15961;54.678;9.110;2022-09-09T09:35:49;18.70;99.90
28823;DHT22;15961;54.678;9.110;2022-09-09T09:38:20;18.70;99.90
28823;DHT22;15961;54.678;9.110;2022-09-09T09:40:53;18.70;99.90
28823;DHT22;15961;54.678;9.110;2022-09-09T09:43:35;18.70;99.90
28823;DHT22;15961;54.678;9.110;2022-09-09T09:46:04;18.90;99.90
28823;DHT22;15961;54.678;9.110;2022-09-09T09:48:30;18.70;99.90
28823;DHT22;15961;54.678;9.110;2022-09-09T09:51:01;19.00;99.90
28823;DHT22;15961;54.678;9.110;2022-09-09T09:53:34;19.30;99.90
28823;DHT22;15961;54.678;9.110;2022-09-09T09:56:06;19.50;99.90
28823;DHT22;15961;54.678;9.110;2022-09-09T09:58:35;19.70;99.90
28823;DHT22;15961;54.678;9.110;2022-09-09T10:01:05;19.70;99.90
28823;DHT22;15961;54.678;9.110;2022-09-09T10:03:33;19.60;99.90
28823;DHT22;15961;54.678;9.110;2022-09-09T10:06:03;19.70;99.90
28823;DHT22;15961;54.678;9.110;2022-09-09T10:08:29;19.70;99.90
28823;DHT22;15961;54.678;9.110;2022-09-09T10:19:03;19.80;99.90
28823;DHT22;15961;54.678;9.110;2022-09-09T10:21:36;20.00;99.90
28823;DHT22;15961;54.678;9.110;2022-09-09T10:27:11;20.00;99.90
28823;DHT22;15961;54.678;9.110;2022-09-09T10:32:45;19.60;99.90
28823;DHT22;15961;54.678;9.110;2022-09-09T10:37:55;19.60;99.90
28823;DHT22;15961;54.678;9.110;2022-09-09T10:43:01;19.70;99.90
28823;DHT22;15961;54.678;9.110;2022-09-09T10:45:52;19.40;99.90
28823;DHT22;15961;54.678;9.110;2022-09-09T10:48:50;19.10;99.90
28823;DHT22;15961;54.678;9.110;2022-09-09T10:51:23;18.90;99.90
28823;DHT22;15961;54.678;9.110;2022-09-09T10:54:22;18.60;99.90
28823;DHT22;15961;54.678;9.110;2022-09-09T10:56:54;18.70;99.90
28823;DHT22;15961;54.678;9.110;2022-09-09T10:59:26;18.80;99.90
28823;DHT22;15961;54.678;9.110;2022-09-09T11:02:15;18.80;99.90
28823;DHT22;15961;54.678;9.110;2022-09-09T11:04:51;18.90;99.90
28823;DHT22;15961;54.678;9.110;2022-09-09T11:08:01;19.10;99.90
28823;DHT22;15961;54.678;9.110;2022-09-09T11:16:03;19.20;99.90
28823;DHT22;15961;54.678;9.110;2022-09-09T11:18:31;19.10;99.90
28823;DHT22;15961;54.678;9.110;2022-09-09T11:21:03;19.30;99.90
28823;DHT22;15961;54.678;9.110;2022-09-09T11:23:49;19.40;99.90
28823;DHT22;15961;54.678;9.110;2022-09-09T11:26:44;19.50;99.90
28823;DHT22;15961;54.678;9.110;2022-09-09T11:42:42;20.50;99.90
28823;DHT22;15961;54.678;9.110;2022-09-09T11:45:10;20.20;99.90
28823;DHT22;15961;54.678;9.110;2022-09-09T11:47:36;20.00;99.90
28823;DHT22;15961;54.678;9.110;2022-09-09T11:52:42;20.20;99.90
28823;DHT22;15961;54.678;9.110;2022-09-09T11:55:28;20.20;99.90
28823;DHT22;15961;54.678;9.110;2022-09-09T11:58:15;20.80;99.90
28823;DHT22;15961;54.678;9.110;2022-09-09T12:00:48;21.00;99.90
28823;DHT22;15961;54.678;9.110;2022-09-09T12:03:39;21.10;99.90
28823;DHT22;15961;54.678;9.110;2022-09-09T12:06:25;21.10;99.90
28823;DHT22;15961;54.678;9.110;2022-09-09T12:08:57;21.30;99.90
28823;DHT22;15961;54.678;9.110;2022-09-09T12:11:28;21.60;99.90
28823;DHT22;15961;54.678;9.110;2022-09-09T12:13:55;22.00;99.90
28823;DHT22;15961;54.678;9.110;2022-09-09T12:16:35;22.40;99.90
28823;DHT22;15961;54.678;9.110;2022-09-09T12:19:21;22.60;99.90
28823;DHT22;15961;54.678;9.110;2022-09-09T12:22:07;22.00;99.90
28823;DHT22;15961;54.678;9.110;2022-09-09T12:24:50;21.20;99.90
28823;DHT22;15961;54.678;9.110;2022-09-09T12:27:33;21.10;99.90
28823;DHT22;15961;54.678;9.110;2022-09-09T12:30:03;21.10;99.90
28823;DHT22;15961;54.678;9.110;2022-09-09T12:32:29;21.00;99.90
28823;DHT22;15961;54.678;9.110;2022-09-09T12:35:11;20.90;99.90
28823;DHT22;15961;54.678;9.110;2022-09-09T12:37:41;20.80;99.90
28823;DHT22;15961;54.678;9.110;2022-09-09T12:42:50;20.60;99.90
28823;DHT22;15961;54.678;9.110;2022-09-09T12:45:25;20.70;99.90
28823;DHT22;15961;54.678;9.110;2022-09-09T12:50:30;20.20;99.90
28823;DHT22;15961;54.678;9.110;2022-09-09T12:52:59;20.30;99.90
28823;DHT22;15961;54.678;9.110;2022-09-09T12:55:32;20.60;99.90
28823;DHT22;15961;54.678;9.110;2022-09-09T12:58:00;20.70;99.90
28823;DHT22;15961;54.678;9.110;2022-09-09T13:00:29;20.90;99.90
28823;DHT22;15961;54.678;9.110;2022-09-09T13:02:57;21.40;99.90
28823;DHT22;15961;54.678;9.110;2022-09-09T13:05:27;21.80;99.90
28823;DHT22;15961;54.678;9.110;2022-09-09T13:08:11;22.40;99.90
28823;DHT22;15961;54.678;9.110;2022-09-09T13:11:02;22.60;99.90
28823;DHT22;15961;54.678;9.110;2022-09-09T13:13:31;23.10;99.90
28823;DHT22;15961;54.678;9.110;2022-09-09T13:16:02;23.90;99.90
28823;DHT22;15961;54.678;9.110;2022-09-09T13:18:36;24.80;99.90
28823;DHT22;15961;54.678;9.110;2022-09-09T13:21:03;24.60;99.90
28823;DHT22;15961;54.678;9.110;2022-09-09T13:23:32;23.40;99.90
28823;DHT22;15961;54.678;9.110;2022-09-09T13:26:04;23.10;99.90
28823;DHT22;15961;54.678;9.110;2022-09-09T13:28:31;23.40;99.90
28823;DHT22;15961;54.678;9.110;2022-09-09T13:33:33;24.20;99.90
28823;DHT22;15961;54.678;9.110;2022-09-09T13:36:10;24.90;99.90
28823;DHT22;15961;54.678;9.110;2022-09-09T13:41:36;23.80;99.90
28823;DHT22;15961;54.678;9.110;2022-09-09T13:44:02;23.20;99.90
28823;DHT22;15961;54.678;9.110;2022-09-09T13:46:34;22.80;99.90
28823;DHT22;15961;54.678;9.110;2022-09-09T13:49:16;22.00;99.90
28823;DHT22;15961;54.678;9.110;2022-09-09T13:51:49;21.60;99.90
28823;DHT22;15961;54.678;9.110;2022-09-09T13:54:18;21.40;99.90
28823;DHT22;15961;54.678;9.110;2022-09-09T13:56:44;21.80;99.90
28823;DHT22;15961;54.678;9.110;2022-09-09T13:59:18;22.10;99.90
28823;DHT22;15961;54.678;9.110;2022-09-09T14:01:47;22.30;99.90
28823;DHT22;15961;54.678;9.110;2022-09-09T14:04:13;22.50;99.90
28823;DHT22;15961;54.678;9.110;2022-09-09T14:06:39;22.20;99.90
28823;DHT22;15961;54.678;9.110;2022-09-09T14:09:06;22.00;99.90
28823;DHT22;15961;54.678;9.110;2022-09-09T14:11:34;21.90;99.90
28823;DHT22;15961;54.678;9.110;2022-09-09T14:13:59;21.30;99.90
28823;DHT22;15961;54.678;9.110;2022-09-09T14:16:26;21.30;99.90
28823;DHT22;15961;54.678;9.110;2022-09-09T14:18:53;21.00;99.90
28823;DHT22;15961;54.678;9.110;2022-09-09T14:21:21;20.90;99.90
28823;DHT22;15961;54.678;9.110;2022-09-09T14:23:46;20.70;99.90
28823;DHT22;15961;54.678;9.110;2022-09-09T14:26:13;20.60;99.90
28823;DHT22;15961;54.678;9.110;2022-09-09T14:28:39;20.60;99.90
28823;DHT22;15961;54.678;9.110;2022-09-09T14:31:05;20.70;99.90
28823;DHT22;15961;54.678;9.110;2022-09-09T14:33:31;20.60;99.90
28823;DHT22;15961;54.678;9.110;2022-09-09T14:36:02;20.60;99.90
28823;DHT22;15961;54.678;9.110;2022-09-09T14:38:34;20.80;99.90
28823;DHT22;15961;54.678;9.110;2022-09-09T14:41:04;21.10;99.90
28823;DHT22;15961;54.678;9.110;2022-09-09T14:43:29;21.00;99.90
28823;DHT22;15961;54.678;9.110;2022-09-09T14:46:03;21.30;99.90
28823;DHT22;15961;54.678;9.110;2022-09-09T14:48:31;21.50;99.90
28823;DHT22;15961;54.678;9.110;2022-09-09T14:50:56;21.80;99.90
28823;DHT22;15961;54.678;9.110;2022-09-09T14:53:22;22.00;99.90
28823;DHT22;15961;54.678;9.110;2022-09-09T14:55:47;22.00;99.90
28823;DHT22;15961;54.678;9.110;2022-09-09T14:58:13;21.80;99.90
28823;DHT22;15961;54.678;9.110;2022-09-09T15:00:39;22.00;99.90
28823;DHT22;15961;54.678;9.110;2022-09-09T15:03:04;22.10;99.90
28823;DHT22;15961;54.678;9.110;2022-09-09T15:05:30;22.00;99.90
28823;DHT22;15961;54.678;9.110;2022-09-09T15:07:57;22.20;99.90
28823;DHT22;15961;54.678;9.110;2022-09-09T15:10:24;22.30;99.90
28823;DHT22;15961;54.678;9.110;2022-09-09T15:12:49;22.20;99.90
28823;DHT22;15961;54.678;9.110;2022-09-09T15:15:15;22.10;99.90
28823;DHT22;15961;54.678;9.110;2022-09-09T15:17:40;22.50;99.90
28823;DHT22;15961;54.678;9.110;2022-09-09T15:20:06;22.90;99.90
28823;DHT22;15961;54.678;9.110;2022-09-09T15:22:32;23.20;99.90
28823;DHT22;15961;54.678;9.110;2022-09-09T15:24:59;23.30;99.90
28823;DHT22;15961;54.678;9.110;2022-09-09T15:27:24;23.50;99.90
28823;DHT22;15961;54.678;9.110;2022-09-09T15:29:50;23.80;99.90
28823;DHT22;15961;54.678;9.110;2022-09-09T15:32:17;23.70;99.90
28823;DHT22;15961;54.678;9.110;2022-09-09T15:34:42;23.50;99.90
28823;DHT22;15961;54.678;9.110;2022-09-09T15:37:10;23.10;99.90
28823;DHT22;15961;54.678;9.110;2022-09-09T15:39:38;22.80;99.90
28823;DHT22;15961;54.678;9.110;2022-09-09T15:42:04;22.60;99.90
28823;DHT22;15961;54.678;9.110;2022-09-09T15:44:30;22.30;99.90
28823;DHT22;15961;54.678;9.110;2022-09-09T15:47:03;22.10;99.90
28823;DHT22;15961;54.678;9.110;2022-09-09T15:49:28;21.80;99.90
28823;DHT22;15961;54.678;9.110;2022-09-09T15:51:59;21.60;99.90
28823;DHT22;15961;54.678;9.110;2022-09-09T15:54:27;21.30;99.90
28823;DHT22;15961;54.678;9.110;2022-09-09T15:56:58;21.20;99.90
28823;DHT22;15961;54.678;9.110;2022-09-09T15:59:26;21.50;99.90
28823;DHT22;15961;54.678;9.110;2022-09-09T16:01:53;21.80;99.90
28823;DHT22;15961;54.678;9.110;2022-09-09T16:04:21;21.90;99.90
28823;DHT22;15961;54.678;9.110;2022-09-09T16:06:55;21.80;99.90
28823;DHT22;15961;54.678;9.110;2022-09-09T16:09:21;21.50;99.90
28823;DHT22;15961;54.678;9.110;2022-09-09T16:11:47;21.00;99.90
28823;DHT22;15961;54.678;9.110;2022-09-09T16:14:14;20.60;99.90
28823;DHT22;15961;54.678;9.110;2022-09-09T16:16:41;20.30;99.90
28823;DHT22;15961;54.678;9.110;2022-09-09T16:19:09;20.00;99.90
28823;DHT22;15961;54.678;9.110;2022-09-09T16:21:45;19.80;99.90
28823;DHT22;15961;54.678;9.110;2022-09-09T16:24:15;19.60;99.90
28823;DHT22;15961;54.678;9.110;2022-09-09T16:26:42;19.50;99.90
28823;DHT22;15961;54.678;9.110;2022-09-09T16:29:10;19.40;99.90
28823;DHT22;15961;54.678;9.110;2022-09-09T16:31:36;19.30;99.90
28823;DHT22;15961;54.678;9.110;2022-09-09T16:34:02;19.20;99.90
28823;DHT22;15961;54.678;9.110;2022-09-09T16:36:32;18.80;99.90
28823;DHT22;15961;54.678;9.110;2022-09-09T16:39:05;18.30;99.90
28823;DHT22;15961;54.678;9.110;2022-09-09T16:41:32;17.90;99.90
28823;DHT22;15961;54.678;9.110;2022-09-09T16:44:00;17.50;99.90
28823;DHT22;15961;54.678;9.110;2022-09-09T16:46:28;17.30;99.90
28823;DHT22;15961;54.678;9.110;2022-09-09T16:48:56;17.00;99.90
28823;DHT22;15961;54.678;9.110;2022-09-09T16:51:30;16.70;99.90
28823;DHT22;15961;54.678;9.110;2022-09-09T16:53:59;16.50;99.90
28823;DHT22;15961;54.678;9.110;2022-09-09T16:56:27;16.30;99.90
28823;DHT22;15961;54.678;9.110;2022-09-09T16:58:59;16.20;99.90
28823;DHT22;15961;54.678;9.110;2022-09-09T17:01:27;16.10;99.90
28823;DHT22;15961;54.678;9.110;2022-09-09T17:03:59;16.00;99.90
28823;DHT22;15961;54.678;9.110;2022-09-09T17:06:27;15.80;99.90
28823;DHT22;15961;54.678;9.110;2022-09-09T17:09:02;15.70;99.90
28823;DHT22;15961;54.678;9.110;2022-09-09T17:11:28;15.60;99.90
28823;DHT22;15961;54.678;9.110;2022-09-09T17:13:55;15.60;99.90
28823;DHT22;15961;54.678;9.110;2022-09-09T17:16:23;15.50;99.90
28823;DHT22;15961;54.678;9.110;2022-09-09T17:18:51;15.50;99.90
28823;DHT22;15961;54.678;9.110;2022-09-09T17:21:19;15.50;99.90
28823;DHT22;15961;54.678;9.110;2022-09-09T17:23:45;15.40;99.90
28823;DHT22;15961;54.678;9.110;2022-09-09T17:26:14;15.40;99.90
28823;DHT22;15961;54.678;9.110;2022-09-09T17:28:40;15.40;99.90
28823;DHT22;15961;54.678;9.110;2022-09-09T17:31:09;15.40;99.90
28823;DHT22;15961;54.678;9.110;2022-09-09T17:33:37;15.40;99.90
28823;DHT22;15961;54.678;9.110;2022-09-09T17:36:30;15.40;99.90
28823;DHT22;15961;54.678;9.110;2022-09-09T17:38:56;15.40;99.90